Hovedside
METAR-TAF:

METAR-TAF

Lufthavner :

Ørland, Norge

Ørland hovedflystasjon

breddegrad: 63-42N, lengdegrad: 009-36E, høyde over havet: 0 m

Gjeldene værobservasjon

Denne rapporten ble laget for 27 minutter siden, klokken 19:50 UTC
Vind 11 kt fra Nord
Temperatur 9°C
Luftfuktighet 81%
Trykk 1012 hPa
Sikt 10 km eller mer
Få skyer i en høyde av 1300 ft

METAR: ENOL 281950Z 01011KT 9999 FEW013 09/06 Q1012 NOSIG

Tid: 22:17 (20:17 UTC)

Varsel

Varsel gyldig fra 28. klokken 18 UTC til 29. klokken 18 UTC
Vind 9 kt fra Nord
Sikt 10 km eller mer
Få skyer i en høyde av 1200 ft
Spredte skyer i en høyde av 2000 ft

TAF: ENOL 2818/2918 01009KT 9999 FEW012 SCT020

Værobservasjoner og værvarsel for over 4000 flyplasser (METAR- og TAF-rapporter).

Tilgjengelige stasjoner er representert av de røde og gule prikkene på kartet.

Hold musepekeren over prikken for å se navnet på stasjonen.

Klikk så for å se værobservasjoner og -varsler.

For å forandre kartet kan du klikke på den grønne knappen med svart kryss for å zoome inn, på den grønne knappen med strek for å zoome ut, eller på de grønne pilene for å se tilstøtende kart.


METAR-TAF: